CMP225 SVMI-MPTO
Flight info
| Callsign | CMP225 |
|---|---|
| Flight time | 1h 52m |
| Altitude | 36000 |
| Route | MARES1 MARES A315 ATONO G427 PBL UP650 TBG |
| Aircraft | B38M/M-SDE3FGHIRWY/S |
Departure
| Time | 2025-10-06 02:21 |
|---|---|
| Airport | Maiquetía Simón Bolívar International Airport (SVMI) |
Arrival
| Time | 2025-10-06 04:13 |
|---|---|
| Airport | Tocumen International Airport (MPTO) |
| Time | Latitude | Longitude | Altitude | Speed | Heading |
|---|---|---|---|---|---|
| 2025-10-06 02:10 | 10.59850 | -67.00467 | 195 ft | 0 kts | 175° |
| 2025-10-06 02:12 | 10.59862 | -67.00468 | 196 ft | 2 kts | 174° |
| 2025-10-06 02:13 | 10.59918 | -67.00451 | 227 ft | 1 kts | 265° |
| 2025-10-06 02:16 | 10.59916 | -67.00558 | 227 ft | 14 kts | 269° |
| 2025-10-06 02:17 | 10.59902 | -67.00829 | 232 ft | 22 kts | 268° |
| 2025-10-06 02:17 | 10.59899 | -67.01164 | 240 ft | 21 kts | 266° |
| 2025-10-06 02:18 | 10.60112 | -67.01245 | 243 ft | 20 kts | 4° |
| 2025-10-06 02:18 | 10.60234 | -67.01257 | 243 ft | 18 kts | 343° |
| 2025-10-06 02:19 | 10.60381 | -67.01164 | 241 ft | 0 kts | 87° |
| 2025-10-06 02:19 | 10.60385 | -67.01018 | 237 ft | 54 kts | 88° |
| 2025-10-06 02:20 | 10.60490 | -66.98012 | 1122 ft | 180 kts | 87° |
| 2025-10-06 02:20 | 10.60658 | -66.96753 | 1987 ft | 181 kts | 76° |
| 2025-10-06 02:21 | 10.63916 | -66.94238 | 3210 ft | 236 kts | 359° |
| 2025-10-06 02:21 | 10.66638 | -66.96086 | 3528 ft | 264 kts | 294° |
| 2025-10-06 02:22 | 10.66984 | -66.97895 | 3848 ft | 269 kts | 271° |
| 2025-10-06 02:22 | 10.66997 | -67.03746 | 3991 ft | 277 kts | 274° |
| 2025-10-06 02:23 | 10.67891 | -67.07491 | 4017 ft | 275 kts | 302° |
| 2025-10-06 02:23 | 10.70235 | -67.10578 | 3985 ft | 276 kts | 311° |
| 2025-10-06 02:24 | 10.72717 | -67.13560 | 4663 ft | 274 kts | 310° |
| 2025-10-06 02:25 | 10.76449 | -67.18194 | 7523 ft | 289 kts | 310° |
| 2025-10-06 02:25 | 10.78999 | -67.21419 | 9310 ft | 298 kts | 308° |
| 2025-10-06 02:25 | 10.80257 | -67.23114 | 10157 ft | 304 kts | 308° |
| 2025-10-06 02:26 | 10.82930 | -67.26714 | 11239 ft | 332 kts | 308° |
| 2025-10-06 02:26 | 10.85757 | -67.30513 | 12800 ft | 340 kts | 308° |
| 2025-10-06 02:27 | 10.87083 | -67.32518 | 13519 ft | 345 kts | 294° |
| 2025-10-06 02:27 | 10.85712 | -67.39423 | 15458 ft | 355 kts | 240° |
| 2025-10-06 02:28 | 10.83305 | -67.43869 | 16707 ft | 362 kts | 240° |
| 2025-10-06 02:29 | 10.79611 | -67.50664 | 18462 ft | 372 kts | 240° |
| 2025-10-06 02:29 | 10.78347 | -67.52986 | 18981 ft | 374 kts | 240° |
| 2025-10-06 02:29 | 10.75827 | -67.57614 | 19985 ft | 379 kts | 240° |
| 2025-10-06 02:30 | 10.73240 | -67.62362 | 21006 ft | 384 kts | 240° |
| 2025-10-06 02:30 | 10.70650 | -67.67115 | 21999 ft | 388 kts | 240° |
| 2025-10-06 02:31 | 10.68014 | -67.71948 | 22981 ft | 394 kts | 240° |
| 2025-10-06 02:31 | 10.65337 | -67.76854 | 23901 ft | 399 kts | 240° |
| 2025-10-06 02:32 | 10.62630 | -67.81811 | 24755 ft | 403 kts | 240° |
| 2025-10-06 02:32 | 10.61263 | -67.84311 | 25181 ft | 405 kts | 240° |
| 2025-10-06 02:34 | 10.48811 | -68.07358 | 28673 ft | 423 kts | 251° |
| 2025-10-06 02:36 | 10.45533 | -68.31474 | 31224 ft | 439 kts | 263° |
| 2025-10-06 02:38 | 10.42471 | -68.56441 | 33447 ft | 452 kts | 263° |
| 2025-10-06 02:40 | 10.39360 | -68.81639 | 35879 ft | 446 kts | 263° |
| 2025-10-06 02:42 | 10.36273 | -69.06491 | 35986 ft | 443 kts | 263° |
| 2025-10-06 02:44 | 10.33165 | -69.31343 | 35984 ft | 444 kts | 263° |
| 2025-10-06 02:46 | 10.30034 | -69.56234 | 35981 ft | 445 kts | 263° |
| 2025-10-06 02:49 | 10.26470 | -69.84371 | 35974 ft | 446 kts | 263° |
| 2025-10-06 02:50 | 10.24092 | -70.03045 | 35970 ft | 445 kts | 263° |
| 2025-10-06 02:53 | 10.20090 | -70.34255 | 35970 ft | 446 kts | 263° |
| 2025-10-06 02:54 | 10.17275 | -70.56067 | 35968 ft | 446 kts | 263° |
| 2025-10-06 02:56 | 10.14437 | -70.77938 | 35965 ft | 447 kts | 263° |
| 2025-10-06 02:58 | 10.10760 | -71.06100 | 35946 ft | 448 kts | 263° |
| 2025-10-06 03:00 | 10.07460 | -71.31198 | 35929 ft | 449 kts | 263° |
| 2025-10-06 03:02 | 10.03691 | -71.56175 | 35930 ft | 450 kts | 262° |
| 2025-10-06 03:04 | 9.99777 | -71.81236 | 35925 ft | 451 kts | 262° |
| 2025-10-06 03:06 | 9.95853 | -72.06112 | 35930 ft | 451 kts | 262° |
| 2025-10-06 03:08 | 9.92529 | -72.27088 | 35933 ft | 451 kts | 262° |
| 2025-10-06 03:10 | 9.88025 | -72.55367 | 35956 ft | 457 kts | 262° |
| 2025-10-06 03:12 | 9.84380 | -72.78143 | 35989 ft | 469 kts | 262° |
| 2025-10-06 03:14 | 9.79611 | -73.07453 | 36002 ft | 468 kts | 262° |
| 2025-10-06 03:16 | 9.75290 | -73.33442 | 35973 ft | 468 kts | 261° |
| 2025-10-06 03:18 | 9.70935 | -73.59509 | 35954 ft | 469 kts | 261° |
| 2025-10-06 03:20 | 9.66581 | -73.85638 | 35952 ft | 472 kts | 261° |
| 2025-10-06 03:22 | 9.62752 | -74.08598 | 35954 ft | 472 kts | 261° |
| 2025-10-06 03:24 | 9.57809 | -74.38107 | 35947 ft | 473 kts | 261° |
| 2025-10-06 03:26 | 9.53934 | -74.61123 | 35945 ft | 474 kts | 261° |
| 2025-10-06 03:28 | 9.49426 | -74.87485 | 35948 ft | 475 kts | 260° |
| 2025-10-06 03:30 | 9.44615 | -75.13824 | 35942 ft | 477 kts | 261° |
| 2025-10-06 03:33 | 9.38565 | -75.46811 | 35941 ft | 477 kts | 261° |
| 2025-10-06 03:34 | 9.34298 | -75.69966 | 35949 ft | 477 kts | 260° |
| 2025-10-06 03:36 | 9.30025 | -75.93073 | 35937 ft | 478 kts | 260° |
| 2025-10-06 03:38 | 9.24488 | -76.22882 | 35947 ft | 479 kts | 260° |
| 2025-10-06 03:40 | 9.20167 | -76.46051 | 35937 ft | 480 kts | 260° |
| 2025-10-06 03:42 | 9.14565 | -76.75960 | 35940 ft | 481 kts | 260° |
| 2025-10-06 03:44 | 9.09566 | -77.02534 | 35939 ft | 481 kts | 259° |
| 2025-10-06 03:46 | 9.05163 | -77.25851 | 35943 ft | 482 kts | 259° |
| 2025-10-06 03:48 | 9.01154 | -77.52630 | 35949 ft | 483 kts | 264° |
| 2025-10-06 03:50 | 8.98278 | -77.79642 | 35950 ft | 483 kts | 264° |
| 2025-10-06 03:53 | 8.94645 | -78.13484 | 29038 ft | 492 kts | 264° |
| 2025-10-06 03:54 | 8.92765 | -78.30885 | 24142 ft | 500 kts | 264° |
| 2025-10-06 03:54 | 8.92142 | -78.36630 | 23034 ft | 488 kts | 264° |
| 2025-10-06 03:55 | 8.91411 | -78.43362 | 21683 ft | 475 kts | 264° |
| 2025-10-06 03:55 | 8.90696 | -78.49939 | 20336 ft | 465 kts | 264° |
| 2025-10-06 03:56 | 8.89995 | -78.56374 | 19091 ft | 456 kts | 264° |
| 2025-10-06 03:56 | 8.89649 | -78.59555 | 18507 ft | 451 kts | 264° |
| 2025-10-06 03:57 | 8.88638 | -78.68811 | 16918 ft | 431 kts | 264° |
| 2025-10-06 03:57 | 8.87990 | -78.74727 | 15924 ft | 420 kts | 263° |
| 2025-10-06 03:58 | 8.87365 | -78.80430 | 14491 ft | 400 kts | 263° |
| 2025-10-06 03:58 | 8.86762 | -78.85929 | 12919 ft | 386 kts | 263° |
| 2025-10-06 03:59 | 8.86182 | -78.91211 | 11524 ft | 370 kts | 263° |
| 2025-10-06 03:59 | 8.85629 | -78.96238 | 10461 ft | 349 kts | 264° |
| 2025-10-06 04:00 | 8.85367 | -79.00890 | 9991 ft | 314 kts | 268° |
| 2025-10-06 04:00 | 8.85283 | -79.03059 | 9664 ft | 303 kts | 268° |
| 2025-10-06 04:01 | 8.85027 | -79.09142 | 8691 ft | 274 kts | 268° |
| 2025-10-06 04:01 | 8.84861 | -79.12951 | 8119 ft | 278 kts | 268° |
| 2025-10-06 04:02 | 8.84689 | -79.16901 | 7511 ft | 283 kts | 268° |
| 2025-10-06 04:02 | 8.84516 | -79.20841 | 6929 ft | 280 kts | 268° |
| 2025-10-06 04:03 | 8.84349 | -79.24646 | 6346 ft | 262 kts | 268° |
| 2025-10-06 04:03 | 8.84192 | -79.28219 | 5776 ft | 246 kts | 268° |
| 2025-10-06 04:04 | 8.84118 | -79.29919 | 5503 ft | 238 kts | 268° |
| 2025-10-06 04:04 | 8.83902 | -79.34794 | 4828 ft | 226 kts | 268° |
| 2025-10-06 04:05 | 8.83767 | -79.37872 | 4546 ft | 212 kts | 268° |
| 2025-10-06 04:05 | 8.84410 | -79.40620 | 4321 ft | 204 kts | 301° |
| 2025-10-06 04:06 | 8.85848 | -79.43054 | 4078 ft | 198 kts | 302° |
| 2025-10-06 04:06 | 8.87262 | -79.45386 | 3852 ft | 190 kts | 302° |
| 2025-10-06 04:07 | 8.89015 | -79.47240 | 3392 ft | 186 kts | 345° |
| 2025-10-06 04:07 | 8.90260 | -79.47255 | 3163 ft | 183 kts | 12° |
| 2025-10-06 04:08 | 8.92597 | -79.46231 | 2681 ft | 183 kts | 30° |
| 2025-10-06 04:08 | 8.94801 | -79.44951 | 2224 ft | 181 kts | 30° |
| 2025-10-06 04:09 | 8.97939 | -79.43156 | 1533 ft | 165 kts | 30° |
| 2025-10-06 04:09 | 8.99853 | -79.42064 | 1142 ft | 154 kts | 29° |
| 2025-10-06 04:10 | 9.01692 | -79.41013 | 777 ft | 151 kts | 28° |
| 2025-10-06 04:10 | 9.03569 | -79.39954 | 335 ft | 151 kts | 29° |
| 2025-10-06 04:11 | 9.05295 | -79.38960 | 33 ft | 119 kts | 29° |
| 2025-10-06 04:11 | 9.05810 | -79.38665 | 34 ft | 53 kts | 29° |
| 2025-10-06 04:12 | 9.06386 | -79.38379 | 32 ft | 27 kts | 360° |
| 2025-10-06 04:12 | 9.06641 | -79.38462 | 32 ft | 4 kts | 220° |
| 2025-10-06 04:13 | 9.06425 | -79.38579 | 32 ft | 27 kts | 209° |
| 2025-10-06 04:13 | 9.06389 | -79.38763 | 32 ft | 10 kts | 311° |
| 2025-10-06 04:14 | 9.06495 | -79.38859 | 32 ft | 6 kts | 285° |
| 2025-10-06 04:14 | 9.06496 | -79.38866 | 32 ft | 0 kts | 285° |